Time;durP1;ratioP1;P1;durP2;ratioP2;P2;SDS_P1;SDS_P2;PMS_P1;PMS_P2;Temp;Humidity;BMP_temperature;BMP_pressure;BME280_temperature;BME280_humidity;BME280_pressure;Samples;Min_cycle;Max_cycle;Signal;HPM_P1;HPM_P2
2024/01/31 00:00:12;;;;;;;21.67;16.30;;;;;;;6.85;66.80;97776.75;5026812;28;20176;-68
2024/01/31 00:02:38;;;;;;;22.20;16.70;;;;;;;6.87;67.42;97776.72;5026448;28;20329;-69
2024/01/31 00:05:04;;;;;;;26.40;16.87;;;;;;;6.85;66.98;97779.34;5026161;28;20171;-68
2024/01/31 00:07:29;;;;;;;21.63;16.10;;;;;;;6.76;67.01;97784.63;5026186;28;20571;-70
2024/01/31 00:09:54;;;;;;;20.47;15.30;;;;;;;6.82;66.95;97783.72;5025653;28;20191;-69
2024/01/31 00:12:20;;;;;;;17.90;15.07;;;;;;;6.72;67.01;97782.91;5025752;28;20183;-68
2024/01/31 00:14:45;;;;;;;17.93;14.97;;;;;;;6.73;67.68;97795.06;5025839;28;21061;-69
2024/01/31 00:17:11;;;;;;;20.83;16.87;;;;;;;6.68;67.33;97787.28;5025817;28;20171;-70
2024/01/31 00:19:36;;;;;;;19.30;14.57;;;;;;;6.65;67.73;97786.44;5025831;28;20168;-69
2024/01/31 00:22:02;;;;;;;21.40;15.30;;;;;;;6.64;67.95;97795.13;5025839;28;20186;-69
2024/01/31 00:24:27;;;;;;;19.37;14.60;;;;;;;6.75;67.05;97785.50;5025727;28;20198;-67
2024/01/31 00:26:53;;;;;;;25.50;16.80;;;;;;;6.52;67.67;97776.09;5025843;28;20199;-68
2024/01/31 00:29:18;;;;;;;18.63;16.43;;;;;;;6.46;68.05;97781.31;5025625;28;20586;-69
2024/01/31 00:31:43;;;;;;;18.10;15.23;;;;;;;6.51;67.83;97778.69;5025641;28;20259;-69
2024/01/31 00:34:09;;;;;;;17.57;15.30;;;;;;;6.57;67.84;97774.31;5025876;28;20191;-69
2024/01/31 00:36:34;;;;;;;17.17;14.50;;;;;;;6.61;67.55;97775.13;5025684;28;20184;-69
2024/01/31 00:38:59;;;;;;;20.90;15.63;;;;;;;6.58;67.63;97776.03;5025534;28;20168;-69
2024/01/31 00:41:25;;;;;;;20.07;15.53;;;;;;;6.53;67.90;97783.03;5025599;28;20202;-68
2024/01/31 00:43:51;;;;;;;20.73;14.83;;;;;;;6.50;67.92;97767.41;5025357;28;20219;-69
2024/01/31 00:46:17;;;;;;;20.37;15.00;;;;;;;6.54;67.82;97774.34;5025382;28;20199;-69
2024/01/31 00:48:43;;;;;;;21.03;16.10;;;;;;;6.39;68.18;97779.63;5025425;28;20279;-68
2024/01/31 00:51:11;;;;;;;21.37;16.83;;;;;;;6.40;68.14;97781.34;5025883;28;20418;-69
2024/01/31 00:53:38;;;;;;;16.57;14.63;;;;;;;6.40;68.25;97790.91;5025913;28;20849;-68
2024/01/31 00:56:04;;;;;;;19.20;16.57;;;;;;;6.46;68.05;97783.94;5026259;28;21067;-70
2024/01/31 00:58:31;;;;;;;19.20;16.17;;;;;;;6.54;67.36;97779.56;5026121;28;20414;-69
2024/01/31 01:00:57;;;;;;;16.90;13.70;;;;;;;6.59;67.30;97782.13;5025623;28;20206;-69
2024/01/31 01:03:22;;;;;;;19.83;15.47;;;;;;;6.42;67.70;97784.81;5025256;28;20496;-69
2024/01/31 01:05:47;;;;;;;21.83;15.60;;;;;;;6.49;67.41;97791.72;5024598;28;20203;-68
2024/01/31 01:08:13;;;;;;;17.30;14.93;;;;;;;6.42;67.68;97787.41;5025172;28;20183;-68
2024/01/31 01:10:38;;;;;;;19.23;16.10;;;;;;;6.35;68.15;97791.81;5024996;28;20207;-68
2024/01/31 01:13:04;;;;;;;16.80;13.93;;;;;;;6.21;68.48;97787.53;5025234;28;20191;-69
2024/01/31 01:15:29;;;;;;;18.10;15.37;;;;;;;5.98;69.44;97793.72;5025144;28;20210;-70
2024/01/31 01:17:54;;;;;;;19.03;15.33;;;;;;;6.14;68.79;97798.00;5025244;28;20172;-69
2024/01/31 01:20:20;;;;;;;21.87;15.50;;;;;;;6.02;68.97;97799.75;5024931;28;20170;-67
2024/01/31 01:22:46;;;;;;;21.10;15.80;;;;;;;6.02;69.11;97804.97;5025128;28;20832;-68
2024/01/31 01:25:12;;;;;;;19.90;15.43;;;;;;;6.03;68.78;97802.38;5024996;28;20183;-69
2024/01/31 01:27:37;;;;;;;22.97;15.60;;;;;;;6.12;68.11;97794.53;5025099;28;20637;-70
2024/01/31 01:30:03;;;;;;;18.20;14.80;;;;;;;5.79;69.74;97800.69;5024852;28;20179;-68
2024/01/31 01:32:28;;;;;;;21.40;16.47;;;;;;;5.79;69.70;97803.28;5025120;28;20556;-68
2024/01/31 01:34:54;;;;;;;21.77;16.10;;;;;;;5.86;69.34;97798.94;5025131;28;20267;-70
2024/01/31 01:37:19;;;;;;;20.93;16.03;;;;;;;5.54;70.40;97809.41;5026194;28;20913;-68
2024/01/31 01:39:45;;;;;;;22.33;16.37;;;;;;;5.70;69.76;97806.75;5025457;28;20721;-69
2024/01/31 01:42:11;;;;;;;20.93;15.37;;;;;;;5.88;69.44;97810.19;5025287;28;20199;-69
2024/01/31 01:44:44;;;;;;;18.27;14.60;;;;;;;5.74;70.31;97815.47;5024798;28;20426;-69
2024/01/31 01:47:10;;;;;;;18.93;14.47;;;;;;;5.64;70.23;97805.91;5024836;28;20469;-68
2024/01/31 01:49:37;;;;;;;22.50;15.30;;;;;;;5.73;69.92;97805.88;5024586;28;20424;-69
2024/01/31 01:52:03;;;;;;;21.40;13.80;;;;;;;5.81;69.96;97805.84;5024810;28;20492;-68
2024/01/31 01:54:29;;;;;;;22.27;13.77;;;;;;;5.93;69.40;97805.84;5025283;28;20442;-66
2024/01/31 01:56:54;;;;;;;17.67;13.73;;;;;;;6.05;68.83;97810.19;5025093;28;20405;-68
2024/01/31 01:59:20;;;;;;;18.43;12.90;;;;;;;6.04;68.78;97798.03;5024506;28;20399;-70
2024/01/31 02:01:46;;;;;;;14.13;12.00;;;;;;;6.14;68.31;97807.53;5024602;28;20164;-69
2024/01/31 02:04:12;;;;;;;25.20;14.27;;;;;;;6.03;68.59;97797.16;5024683;28;20505;-68
2024/01/31 02:06:38;;;;;;;16.43;12.00;;;;;;;6.01;68.47;97798.91;5025089;28;20753;-68
2024/01/31 02:09:03;;;;;;;18.67;11.90;;;;;;;6.06;68.25;97796.28;5025410;28;20418;-68
2024/01/31 02:11:32;;;;;;;17.90;13.57;;;;;;;5.85;68.90;97798.03;5024911;28;20682;-69
2024/01/31 02:13:59;;;;;;;18.00;13.37;;;;;;;5.94;68.66;97802.41;5024949;28;20191;-69
2024/01/31 02:16:24;;;;;;;19.73;12.80;;;;;;;5.87;68.81;97805.84;5024636;28;20406;-69
2024/01/31 02:18:50;;;;;;;13.53;11.40;;;;;;;5.83;69.09;97807.59;5027793;28;21162;-69
2024/01/31 02:21:16;;;;;;;13.50;12.10;;;;;;;5.87;68.86;97804.13;5028360;28;20274;-68
2024/01/31 02:23:41;;;;;;;15.93;12.37;;;;;;;5.85;68.66;97803.25;5028066;28;20191;-68
2024/01/31 02:26:07;;;;;;;14.73;12.77;;;;;;;5.96;68.56;97800.66;5027975;28;20453;-69
2024/01/31 02:28:32;;;;;;;19.70;12.37;;;;;;;5.82;68.66;97803.25;5027731;28;20202;-69
2024/01/31 02:30:57;;;;;;;17.60;13.00;;;;;;;5.69;69.35;97793.72;5027735;28;20591;-68
2024/01/31 02:33:23;;;;;;;14.27;11.93;;;;;;;5.77;69.15;97799.81;5028795;28;20195;-68
2024/01/31 02:35:48;;;;;;;14.80;11.03;;;;;;;5.81;68.51;97782.41;5028314;28;20171;-69
2024/01/31 02:38:14;;;;;;;15.87;12.10;;;;;;;5.65;69.19;97792.03;5027831;28;20180;-69
2024/01/31 02:40:39;;;;;;;14.60;11.57;;;;;;;5.72;69.22;97792.00;5028289;28;20241;-69
2024/01/31 02:43:04;;;;;;;19.83;14.37;;;;;;;5.63;69.52;97786.81;5036407;28;20198;-69
2024/01/31 02:45:30;;;;;;;14.90;12.27;;;;;;;5.70;69.02;97791.13;5031034;28;20213;-69
2024/01/31 02:47:56;;;;;;;15.67;12.37;;;;;;;5.78;68.93;97783.28;5028256;28;20182;-69
2024/01/31 02:50:21;;;;;;;16.83;11.70;;;;;;;5.79;68.70;97787.66;5028488;28;20191;-69
2024/01/31 02:52:48;;;;;;;16.00;12.07;;;;;;;5.89;68.57;97785.88;5027969;28;20197;-69
2024/01/31 02:55:13;;;;;;;14.57;10.63;;;;;;;5.80;68.38;97794.59;5027648;28;20194;-69
2024/01/31 02:57:39;;;;;;;18.90;13.30;;;;;;;5.87;68.40;97785.00;5027694;28;20956;-71
2024/01/31 03:00:06;;;;;;;16.10;11.43;;;;;;;5.83;68.49;97789.34;5027471;28;20167;-69
2024/01/31 03:02:32;;;;;;;12.33;11.00;;;;;;;5.98;68.03;97782.44;5027173;28;20240;-68
2024/01/31 03:04:57;;;;;;;17.03;12.33;;;;;;;5.85;68.23;97787.63;5027644;28;20472;-69
2024/01/31 03:07:23;;;;;;;15.00;12.63;;;;;;;5.80;68.18;97788.50;5027526;28;20298;-68
2024/01/31 03:09:48;;;;;;;18.37;12.73;;;;;;;5.83;67.84;97793.69;5027206;28;20167;-67
2024/01/31 03:12:13;;;;;;;13.77;11.27;;;;;;;5.93;67.78;97792.81;5027096;28;20254;-69
2024/01/31 03:14:39;;;;;;;18.50;11.50;;;;;;;5.82;68.21;97791.97;5027077;28;20552;-69
2024/01/31 03:17:04;;;;;;;12.07;10.83;;;;;;;5.72;68.08;97786.78;5027176;28;20159;-68
2024/01/31 03:19:32;;;;;;;12.80;9.77;;;;;;;5.70;68.45;97775.50;5027007;28;20253;-70
2024/01/31 03:21:57;;;;;;;15.67;11.73;;;;;;;5.77;68.17;97781.56;5027134;28;20172;-69
2024/01/31 03:24:22;;;;;;;14.73;12.30;;;;;;;5.83;67.99;97784.16;5026901;28;20448;-68
2024/01/31 03:26:48;;;;;;;19.87;12.73;;;;;;;5.78;68.28;97790.25;5026983;28;20278;-68
2024/01/31 03:29:13;;;;;;;17.90;12.50;;;;;;;5.70;68.41;97785.94;5025831;28;20267;-68
2024/01/31 03:31:39;;;;;;;17.60;13.50;;;;;;;5.72;68.09;97789.41;5026824;28;20656;-68
2024/01/31 03:34:07;;;;;;;14.40;12.90;;;;;;;5.68;68.61;97779.84;5026702;28;20188;-69
2024/01/31 03:36:33;;;;;;;19.50;15.87;;;;;;;5.72;68.21;97786.78;5026449;28;20187;-69
2024/01/31 03:38:59;;;;;;;19.40;14.37;;;;;;;5.77;68.28;97789.38;5026741;28;20754;-69
2024/01/31 03:41:28;;;;;;;20.13;13.77;;;;;;;5.55;68.60;97791.19;5026556;28;20416;-69
2024/01/31 03:43:54;;;;;;;16.90;14.87;;;;;;;5.46;69.03;97792.06;5026558;28;20191;-68
2024/01/31 03:46:20;;;;;;;18.10;15.27;;;;;;;5.64;68.45;97788.53;5017595;28;20958;-69
2024/01/31 03:48:46;;;;;;;21.70;15.67;;;;;;;5.57;68.61;97786.81;5007124;28;20822;-69
2024/01/31 03:51:19;;;;;;;18.93;15.10;;;;;;;5.53;68.67;97790.31;5006840;28;20473;-68
2024/01/31 03:53:44;;;;;;;18.63;13.77;;;;;;;5.36;69.15;97776.44;5006482;28;20791;-69
2024/01/31 03:56:10;;;;;;;17.77;14.67;;;;;;;5.35;69.20;97775.56;5006414;28;20403;-68
2024/01/31 03:58:35;;;;;;;20.63;14.83;;;;;;;5.43;68.77;97778.16;5006322;28;20168;-68
2024/01/31 04:01:00;;;;;;;16.70;14.07;;;;;;;5.43;69.05;97775.56;5006274;28;20176;-69
2024/01/31 04:03:26;;;;;;;19.80;14.97;;;;;;;5.58;68.51;97780.75;5011212;28;20191;-68
2024/01/31 04:05:51;;;;;;;23.03;15.40;;;;;;;5.55;68.52;97783.38;5026087;28;20231;-68
2024/01/31 04:08:16;;;;;;;20.07;14.87;;;;;;;5.51;68.65;97779.03;5025664;28;20203;-68
2024/01/31 04:10:42;;;;;;;17.77;14.40;;;;;;;5.53;68.58;97785.09;5025723;28;20934;-68
2024/01/31 04:13:07;;;;;;;20.73;15.23;;;;;;;5.34;69.32;97778.16;5025624;28;20205;-69
2024/01/31 04:15:32;;;;;;;18.10;14.90;;;;;;;5.32;69.73;97786.00;5026023;28;20172;-69
2024/01/31 04:17:59;;;;;;;16.17;14.43;;;;;;;5.61;68.75;97775.53;5026138;28;20181;-69
2024/01/31 04:20:25;;;;;;;19.40;16.30;;;;;;;5.66;68.33;97772.91;5025975;28;20171;-69
2024/01/31 04:22:50;;;;;;;18.47;14.30;;;;;;;5.49;68.92;97775.56;5025425;28;20438;-67
2024/01/31 04:25:16;;;;;;;17.50;14.43;;;;;;;5.48;68.78;97779.91;5025754;28;20186;-67
2024/01/31 04:27:41;;;;;;;17.43;14.20;;;;;;;5.44;68.79;97775.56;5025559;28;20202;-68
2024/01/31 04:30:10;;;;;;;18.70;13.00;;;;;;;5.43;69.12;97771.25;5025424;28;20223;-68
2024/01/31 04:32:35;;;;;;;18.23;14.93;;;;;;;5.41;69.01;97772.97;5025099;28;20262;-69
2024/01/31 04:35:01;;;;;;;19.77;14.93;;;;;;;5.29;69.56;97779.06;5025449;28;20490;-69
2024/01/31 04:37:26;;;;;;;23.07;14.27;;;;;;;5.53;68.75;97774.69;5025387;28;20264;-68
2024/01/31 04:39:51;;;;;;;14.63;12.90;;;;;;;5.48;69.10;97777.31;5025326;28;20242;-69
2024/01/31 04:42:17;;;;;;;18.10;14.83;;;;;;;5.58;68.81;97788.56;5025722;28;20229;-69
2024/01/31 04:44:45;;;;;;;16.80;14.00;;;;;;;5.49;69.25;97780.75;5025437;28;20295;-69
2024/01/31 04:47:11;;;;;;;17.53;13.57;;;;;;;5.76;68.66;97786.78;5025550;28;20624;-69
2024/01/31 04:49:36;;;;;;;17.27;13.93;;;;;;;5.79;68.30;97786.75;5025103;28;20411;-68
2024/01/31 04:52:02;;;;;;;18.87;14.70;;;;;;;5.80;68.54;97784.16;5025209;28;20501;-69
2024/01/31 04:54:27;;;;;;;17.87;14.80;;;;;;;5.85;68.62;97792.81;5025144;28;20191;-69
2024/01/31 04:56:52;;;;;;;20.10;13.37;;;;;;;5.87;68.30;97800.66;5025150;28;20174;-68
2024/01/31 04:59:18;;;;;;;15.40;13.33;;;;;;;5.81;68.45;97800.66;5025161;28;20174;-67
2024/01/31 05:01:43;;;;;;;17.33;14.60;;;;;;;5.78;68.59;97792.84;5026090;28;20186;-68
2024/01/31 05:04:09;;;;;;;20.63;14.73;;;;;;;5.80;68.24;97794.59;5029779;28;20269;-68
2024/01/31 05:06:34;;;;;;;16.50;14.37;;;;;;;5.82;68.16;97802.41;5036038;28;20199;-68
2024/01/31 05:09:00;;;;;;;18.70;14.70;;;;;;;5.72;68.70;97801.56;5036234;28;20677;-68
2024/01/31 05:11:26;;;;;;;16.10;14.20;;;;;;;5.81;68.30;97811.06;5031787;28;20171;-69
2024/01/31 05:13:51;;;;;;;29.10;14.77;;;;;;;5.76;68.65;97803.28;5026636;28;20461;-68
2024/01/31 05:16:17;;;;;;;25.23;14.53;;;;;;;5.76;68.56;97805.00;5025479;28;20176;-69
2024/01/31 05:18:42;;;;;;;20.10;13.17;;;;;;;5.72;68.50;97809.38;5025280;28;20657;-68
2024/01/31 05:21:10;;;;;;;18.40;14.20;;;;;;;5.79;68.87;97812.81;5025191;28;20186;-69
2024/01/31 05:23:37;;;;;;;18.87;14.53;;;;;;;5.70;69.05;97818.94;5025040;28;20294;-69
2024/01/31 05:26:08;;;;;;;16.97;13.43;;;;;;;5.78;68.91;97813.69;5024897;28;20993;-68
2024/01/31 05:28:34;;;;;;;18.27;14.93;;;;;;;5.81;68.75;97811.06;5025248;28;20410;-68
2024/01/31 05:31:00;;;;;;;18.83;14.20;;;;;;;5.88;67.98;97824.09;5025245;28;20923;-69
2024/01/31 05:33:25;;;;;;;16.30;13.13;;;;;;;5.98;67.96;97821.50;5024945;28;20430;-69
2024/01/31 05:35:50;;;;;;;17.23;13.60;;;;;;;5.92;67.97;97824.94;5025208;28;20632;-68
2024/01/31 05:38:16;;;;;;;15.63;14.03;;;;;;;5.80;68.50;97823.25;5025297;28;20167;-69
2024/01/31 05:40:42;;;;;;;21.90;13.50;;;;;;;5.83;68.55;97819.75;5024961;28;20258;-69
2024/01/31 05:43:08;;;;;;;18.37;13.70;;;;;;;5.83;68.53;97822.34;5025076;28;20202;-69
2024/01/31 05:45:35;;;;;;;23.60;14.70;;;;;;;5.86;68.48;97824.97;5024960;28;20973;-69
2024/01/31 05:48:01;;;;;;;23.93;14.80;;;;;;;5.87;68.52;97832.78;5025304;28;20175;-69
2024/01/31 05:50:27;;;;;;;17.80;13.67;;;;;;;5.81;68.51;97831.91;5028158;28;20794;-68
2024/01/31 05:52:52;;;;;;;19.13;13.47;;;;;;;5.75;69.20;97834.56;5029637;28;20426;-69
2024/01/31 05:55:18;;;;;;;18.80;13.87;;;;;;;5.78;68.83;97842.34;5029331;28;20172;-68
2024/01/31 05:57:48;;;;;;;18.50;14.90;;;;;;;5.83;68.91;97848.41;5028976;28;20175;-68
2024/01/31 06:00:14;;;;;;;14.77;12.30;;;;;;;5.92;68.40;97836.22;5028363;28;20206;-70
2024/01/31 06:02:39;;;;;;;17.40;14.17;;;;;;;5.92;68.54;97846.66;5028440;28;20418;-69
2024/01/31 06:05:05;;;;;;;19.17;13.67;;;;;;;5.86;68.45;97846.69;5027952;28;20421;-69
2024/01/31 06:07:30;;;;;;;21.93;13.80;;;;;;;5.91;68.54;97854.50;5028732;28;20204;-68
2024/01/31 06:09:56;;;;;;;16.23;13.10;;;;;;;5.89;68.75;97851.03;5028261;28;20180;-68
2024/01/31 06:12:21;;;;;;;19.57;14.80;;;;;;;6.07;68.09;97858.84;5028525;28;20179;-68
2024/01/31 06:14:46;;;;;;;17.07;13.20;;;;;;;6.07;68.32;97851.00;5028019;28;20567;-66
2024/01/31 06:17:14;;;;;;;19.57;14.13;;;;;;;6.18;68.01;97850.09;5024629;28;20196;-70
2024/01/31 06:19:39;;;;;;;18.47;13.83;;;;;;;6.13;68.12;97856.19;5024657;28;20182;-69
2024/01/31 06:22:05;;;;;;;17.50;13.03;;;;;;;6.18;67.89;97857.91;5022057;28;20434;-68
2024/01/31 06:24:30;;;;;;;17.47;13.47;;;;;;;5.97;68.87;97864.06;5024172;28;20218;-69
2024/01/31 06:26:55;;;;;;;17.33;13.33;;;;;;;5.91;69.09;97860.56;5021143;28;20200;-67
2024/01/31 06:29:21;;;;;;;20.60;15.20;;;;;;;5.91;69.43;97854.50;5026668;28;20215;-66
2024/01/31 06:31:47;;;;;;;16.47;13.20;;;;;;;6.05;68.62;97855.34;5020764;28;20179;-67
2024/01/31 06:34:16;;;;;;;18.13;14.30;;;;;;;6.05;68.66;97854.50;5028461;28;20195;-66
2024/01/31 06:36:42;;;;;;;33.70;14.80;;;;;;;5.92;68.88;97853.59;5021091;28;20439;-67
2024/01/31 06:39:09;;;;;;;22.53;15.53;;;;;;;6.10;68.46;97860.56;5021083;28;20406;-68
2024/01/31 06:41:36;;;;;;;16.47;14.37;;;;;;;5.98;68.89;97861.47;5026428;28;20475;-67
2024/01/31 06:44:01;;;;;;;24.93;14.33;;;;;;;6.01;68.68;97861.44;5024481;28;21266;-66
2024/01/31 06:46:27;;;;;;;18.57;14.37;;;;;;;5.87;69.18;97868.38;5018372;28;20462;-66
2024/01/31 06:48:52;;;;;;;16.63;14.30;;;;;;;5.90;68.69;97869.22;5007787;28;20180;-67
2024/01/31 06:51:17;;;;;;;16.53;12.90;;;;;;;6.01;68.58;97866.66;5008735;28;20191;-67
2024/01/31 06:53:44;;;;;;;20.33;15.23;;;;;;;6.03;68.63;97867.53;5007039;28;20200;-67
2024/01/31 06:56:16;;;;;;;23.03;14.77;;;;;;;6.07;68.72;97866.66;5027426;28;20167;-69
2024/01/31 06:58:43;;;;;;;18.60;14.90;;;;;;;6.02;68.75;97855.34;5027874;28;20417;-68
2024/01/31 07:01:08;;;;;;;24.17;15.73;;;;;;;5.95;68.77;97864.03;5020691;28;20443;-68
2024/01/31 07:03:34;;;;;;;30.13;14.43;;;;;;;6.02;68.62;97865.75;5022267;28;20447;-68
2024/01/31 07:05:59;;;;;;;24.40;14.53;;;;;;;6.11;68.44;97857.94;5006922;28;20203;-67
2024/01/31 07:08:25;;;;;;;14.73;8.97;;;;;;;8.98;83.64;97845.97;5015911;28;20686;-67
2024/01/31 07:10:50;;;;;;;28.13;17.07;;;;;;;7.33;65.03;97855.56;5013941;28;20172;-67
2024/01/31 07:13:15;;;;;;;19.43;14.60;;;;;;;6.83;65.74;97864.59;5028615;28;20206;-66
2024/01/31 07:15:41;;;;;;;24.30;13.80;;;;;;;6.42;67.32;97868.25;5025372;28;20179;-67
2024/01/31 07:18:06;;;;;;;20.50;15.17;;;;;;;6.35;67.87;97866.53;5027621;28;21080;-66
2024/01/31 07:20:32;;;;;;;16.17;14.47;;;;;;;6.52;67.50;97872.56;5026460;28;20186;-66
2024/01/31 07:22:57;;;;;;;18.27;14.20;;;;;;;6.32;67.31;97871.78;5017885;28;20214;-65
2024/01/31 07:25:22;;;;;;;18.33;14.93;;;;;;;6.36;67.64;97870.91;5024367;28;20167;-67
2024/01/31 07:27:48;;;;;;;16.83;14.50;;;;;;;6.31;67.53;97868.31;5019303;28;20171;-66
2024/01/31 07:30:13;;;;;;;21.20;14.90;;;;;;;6.25;67.72;97865.72;5027163;28;20595;-66
2024/01/31 07:32:39;;;;;;;20.27;14.90;;;;;;;6.08;67.54;97860.56;5018531;28;20180;-66
2024/01/31 07:35:07;;;;;;;21.07;13.70;;;;;;;6.10;68.04;97866.63;5024521;28;20585;-68
2024/01/31 07:37:33;;;;;;;28.30;16.33;;;;;;;6.18;67.56;97868.34;5023063;28;20202;-65
2024/01/31 07:39:59;;;;;;;32.73;15.10;;;;;;;6.39;67.21;97868.28;5024850;28;20953;-67
2024/01/31 07:42:25;;;;;;;23.00;14.30;;;;;;;6.27;67.37;97866.56;5019205;28;20418;-70
2024/01/31 07:44:50;;;;;;;29.00;14.80;;;;;;;6.31;67.24;97864.84;5026588;28;20167;-67
2024/01/31 07:47:15;;;;;;;24.70;13.17;;;;;;;6.24;67.53;97860.53;5019988;28;20539;-67
2024/01/31 07:49:41;;;;;;;17.50;13.80;;;;;;;6.12;67.95;97864.03;5010072;28;20290;-67
2024/01/31 07:52:06;;;;;;;25.40;15.53;;;;;;;6.17;67.89;97866.63;5025716;28;20179;-66
2024/01/31 07:54:32;;;;;;;20.40;13.33;;;;;;;6.22;68.04;97864.88;5026833;28;20183;-67
2024/01/31 07:56:57;;;;;;;24.23;15.70;;;;;;;6.28;67.27;97859.63;5021088;28;20183;-65
2024/01/31 07:59:23;;;;;;;31.63;16.13;;;;;;;6.25;67.50;97857.03;5017407;28;20172;-67
2024/01/31 08:01:48;;;;;;;41.17;16.50;;;;;;;6.35;66.61;97856.13;5020104;28;20287;-67
2024/01/31 08:04:14;;;;;;;18.63;15.00;;;;;;;6.19;67.69;97857.03;5026419;28;20260;-67
2024/01/31 08:06:42;;;;;;;15.63;13.50;;;;;;;6.35;66.81;97850.91;5019135;28;20211;-65
2024/01/31 08:09:09;;;;;;;27.60;14.63;;;;;;;6.30;67.71;97863.09;5020649;28;20893;-68
2024/01/31 08:11:41;;;;;;;37.80;14.80;;;;;;;6.33;67.38;97857.84;5023704;28;20438;-67
2024/01/31 08:14:06;;;;;;;29.93;15.47;;;;;;;6.41;67.23;97860.47;5024772;28;20562;-68
2024/01/31 08:16:31;;;;;;;18.93;13.73;;;;;;;6.29;67.43;97863.97;5026319;28;21031;-66
2024/01/31 08:18:57;;;;;;;20.57;12.87;;;;;;;6.48;66.98;97857.81;5013122;28;20210;-66
2024/01/31 08:21:22;;;;;;;21.43;15.10;;;;;;;6.51;67.07;97857.78;5019186;28;20195;-66
2024/01/31 08:23:50;;;;;;;27.63;14.80;;;;;;;6.57;66.76;97847.34;5026908;28;20195;-68
2024/01/31 08:26:17;;;;;;;16.77;13.10;;;;;;;6.43;67.12;97851.75;5027356;28;20207;-67
2024/01/31 08:28:42;;;;;;;20.60;14.80;;;;;;;6.61;66.57;97842.97;5025469;28;20426;-67
2024/01/31 08:31:08;;;;;;;16.53;14.20;;;;;;;6.56;66.67;97845.59;5014620;28;20468;-67
2024/01/31 08:33:33;;;;;;;15.10;13.20;;;;;;;6.49;67.08;97849.09;5016286;28;20210;-67
2024/01/31 08:35:58;;;;;;;17.83;14.37;;;;;;;6.37;67.52;97843.94;5026050;28;20179;-66
2024/01/31 08:38:24;;;;;;;9.07;7.10;;;;;;;8.41;87.92;97834.50;5026886;28;20668;-66
2024/01/31 08:40:49;;;;;;;17.00;14.10;;;;;;;8.18;64.00;97842.56;5025299;28;20172;-68
2024/01/31 08:43:15;;;;;;;18.43;15.40;;;;;;;7.15;65.15;97840.88;5006115;28;20544;-68
2024/01/31 08:45:40;;;;;;;24.20;15.70;;;;;;;6.99;66.21;97839.25;5006457;28;20192;-68
2024/01/31 08:48:06;;;;;;;29.67;16.63;;;;;;;6.77;66.61;97846.38;5022511;28;20253;-68
2024/01/31 08:50:31;;;;;;;26.90;15.37;;;;;;;6.72;66.68;97838.56;5007255;28;20183;-66
2024/01/31 08:52:56;;;;;;;18.37;14.47;;;;;;;6.85;66.82;97851.53;5008378;28;20276;-66
2024/01/31 08:55:22;;;;;;;23.70;14.50;;;;;;;6.96;66.03;97837.53;5024886;28;20261;-66
2024/01/31 08:57:47;;;;;;;22.67;16.87;;;;;;;6.93;66.33;97834.97;5028740;28;20199;-67
2024/01/31 09:00:13;;;;;;;24.73;16.30;;;;;;;6.89;66.42;97835.84;5026835;28;20667;-68
2024/01/31 09:02:39;;;;;;;19.90;15.40;;;;;;;6.88;67.12;97830.66;5027322;28;20176;-66
2024/01/31 09:05:05;;;;;;;21.30;14.60;;;;;;;6.86;66.77;97828.03;5027735;28;20174;-65
2024/01/31 09:07:30;;;;;;;18.77;15.00;;;;;;;6.85;66.73;97826.31;5027153;28;20403;-67
2024/01/31 09:09:56;;;;;;;23.67;15.43;;;;;;;6.88;67.31;97825.44;5027054;28;20725;-67
2024/01/31 09:12:21;;;;;;;20.90;15.30;;;;;;;6.92;66.63;97833.25;5027657;28;20174;-68
2024/01/31 09:14:46;;;;;;;23.50;15.90;;;;;;;6.99;66.76;97829.72;5027910;28;20266;-67
2024/01/31 09:17:13;;;;;;;22.70;15.80;;;;;;;6.90;67.00;97831.50;5028441;28;20172;-68
2024/01/31 09:19:38;;;;;;;22.50;16.07;;;;;;;6.96;66.90;97827.09;5031422;28;20171;-67
2024/01/31 09:22:05;;;;;;;17.30;14.17;;;;;;;6.97;66.78;97831.47;5032416;28;20410;-67
2024/01/31 09:24:30;;;;;;;25.17;15.47;;;;;;;6.88;66.92;97821.06;5030936;28;20198;-67
2024/01/31 09:26:55;;;;;;;25.50;16.73;;;;;;;6.98;66.31;97822.75;5032572;28;20458;-66
2024/01/31 09:29:21;;;;;;;27.03;16.00;;;;;;;6.90;67.31;97819.31;5035271;28;20172;-65
2024/01/31 09:31:47;;;;;;;27.87;17.03;;;;;;;6.97;66.87;97823.63;5036285;28;20221;-66
2024/01/31 09:34:12;;;;;;;37.10;18.53;;;;;;;6.85;67.37;97820.22;5032280;28;20702;-67
2024/01/31 09:36:37;;;;;;;18.17;15.50;;;;;;;6.88;67.19;97825.44;5031610;28;20175;-68
2024/01/31 09:39:03;;;;;;;20.80;15.70;;;;;;;6.93;67.58;97813.22;5031694;28;20171;-68
2024/01/31 09:41:29;;;;;;;19.07;15.70;;;;;;;6.77;67.23;97815.06;5031718;28;20178;-67
2024/01/31 09:43:55;;;;;;;21.57;15.87;;;;;;;6.85;67.82;97815.88;5031264;28;20191;-68
2024/01/31 09:46:22;;;;;;;19.70;15.73;;;;;;;6.95;67.34;97828.00;5030519;28;20203;-67
2024/01/31 09:48:47;;;;;;;18.87;15.67;;;;;;;6.87;67.86;97819.31;5029031;28;20491;-67
2024/01/31 09:51:13;;;;;;;21.40;16.00;;;;;;;6.94;67.49;97823.63;5031165;28;20410;-67
2024/01/31 09:53:39;;;;;;;21.63;17.17;;;;;;;7.03;66.88;97822.72;5030926;28;20183;-67
2024/01/31 09:56:07;;;;;;;23.30;17.23;;;;;;;7.12;66.53;97821.78;5030036;28;20167;-69
2024/01/31 09:58:33;;;;;;;25.00;15.57;;;;;;;7.11;67.06;97827.88;5030666;28;20233;-65
2024/01/31 10:01:03;;;;;;;20.43;15.17;;;;;;;7.25;66.81;97820.78;5030048;28;20410;-69
2024/01/31 10:03:29;;;;;;;23.13;14.87;;;;;;;7.24;66.46;97824.31;5030071;28;20242;-68
2024/01/31 10:05:54;;;;;;;21.07;16.00;;;;;;;7.37;66.57;97818.13;5029199;28;20457;-69
2024/01/31 10:08:20;;;;;;;32.87;17.80;;;;;;;7.50;66.28;97815.38;5029226;28;20176;-67
2024/01/31 10:10:45;;;;;;;23.40;15.17;;;;;;;7.49;65.93;97824.09;5029374;28;20175;-69
2024/01/31 10:13:10;;;;;;;26.67;16.73;;;;;;;7.47;66.10;97818.03;5029385;28;20343;-66
2024/01/31 10:15:36;;;;;;;21.80;16.00;;;;;;;7.57;65.86;97823.16;5033816;28;20167;-67
2024/01/31 10:18:02;;;;;;;14.73;8.67;;;;;;;9.66;85.53;97815.19;5043111;28;20171;-67
2024/01/31 10:20:27;;;;;;;20.70;11.83;;;;;;;11.27;74.47;97792.63;5043737;28;20248;-69
2024/01/31 10:22:52;;;;;;;15.77;10.60;;;;;;;11.73;65.30;97796.69;5038830;28;20310;-66
2024/01/31 10:25:18;;;;;;;16.00;10.93;;;;;;;12.27;67.45;97787.38;5031039;28;20183;-67
2024/01/31 10:27:47;;;;;;;33.67;17.50;;;;;;;9.47;59.58;97801.53;5032815;28;20200;-66
2024/01/31 10:30:14;;;;;;;26.10;16.10;;;;;;;8.69;61.92;97797.47;5026011;28;20184;-66
2024/01/31 10:32:40;;;;;;;20.37;17.47;;;;;;;8.26;63.63;97793.66;5015413;28;20450;-67
2024/01/31 10:35:07;;;;;;;22.67;17.17;;;;;;;8.23;64.07;97798.91;5012464;28;20910;-67
2024/01/31 10:37:33;;;;;;;19.63;16.70;;;;;;;8.18;64.38;97800.72;5008345;28;20438;-67
2024/01/31 10:40:00;;;;;;;23.30;17.67;;;;;;;8.15;64.34;97800.78;5009277;28;20516;-67
2024/01/31 10:42:26;;;;;;;22.57;16.80;;;;;;;8.07;65.19;97792.13;5009602;28;20502;-69
2024/01/31 10:44:52;;;;;;;26.53;17.87;;;;;;;8.15;65.14;97785.09;5009511;28;20489;-68
2024/01/31 10:47:18;;;;;;;23.83;17.33;;;;;;;8.05;65.39;97791.28;5008812;28;21351;-70
2024/01/31 10:49:43;;;;;;;26.00;16.47;;;;;;;8.19;65.20;97791.13;5009331;28;20441;-67
2024/01/31 10:52:13;;;;;;;23.90;19.47;;;;;;;8.19;64.71;97792.00;5008934;28;20255;-68
2024/01/31 10:54:46;;;;;;;24.63;18.73;;;;;;;8.11;65.15;97783.38;5008798;28;20291;-66
2024/01/31 10:57:13;;;;;;;28.87;17.63;;;;;;;8.18;64.30;97771.97;5009471;28;21008;-66
2024/01/31 10:59:39;;;;;;;28.83;17.93;;;;;;;8.24;64.79;97771.00;5009603;28;20972;-67
2024/01/31 11:02:04;;;;;;;24.80;19.23;;;;;;;8.24;64.31;97766.69;5009259;28;20474;-67
2024/01/31 11:04:30;;;;;;;33.27;20.60;;;;;;;8.30;65.31;97759.63;5021368;28;20438;-65
2024/01/31 11:07:03;;;;;;;25.60;18.87;;;;;;;8.19;65.37;97749.28;5028528;28;20203;-65
2024/01/31 11:09:29;;;;;;;21.63;18.60;;;;;;;8.31;64.76;97756.97;5028249;28;20655;-65
2024/01/31 11:12:12;;;;;;;24.20;18.70;;;;;;;8.48;64.72;97755.06;5028045;28;20460;-67
2024/01/31 11:14:41;;;;;;;33.67;17.13;;;;;;;9.91;65.18;97750.03;5030550;28;20665;-68
2024/01/31 11:17:24;;;;;;;22.20;18.33;;;;;;;9.31;62.65;97740.66;5032756;28;20402;-66